PWSweather.com
Personal Weather Stations
Station Observations
CAMPIGIANO
Campi Bisenzio, FirenzeIT

Campi BisenzioFirenzeIT

Lat: 43.8175012, Lon: 11.1391085

Elevation: 106

Station Type: LaCrosse WS2350

Latest ConditionsUpdated 11:00:01 AM GMT+01:01 Thursday, Nov 27, 2014
Currently Today's Max Today's Min Today's Average
Temperature 57.0°F13.9°C 57.0°F13.9°C 54.1°F12.3°C 54.9°F12.7°C
Dew Point 55.3°F12.9°C 55.3°F12.9°C 51.9°F11.1°C 52.7°F11.5°C
Winds Calm Calm Calm NNECalm NNE - Calm Calm
Wind Gusts -- -- - -
Humidity 94% 94% 90% 92%
Pressure 29.86 in1011.2 mb 29.91 in1012.9 mb 29.84 in1010.5 mb -
Precipitation - 0.15 in3.8 mm - -
Hour Temp Dew Point Humidity Winds Wind Gusts Pressure Precip Precip Rate Daily Precip Total
11:00 AM 57.0°F13.9°C 55.3°F12.9°C 94% Calm Calm -- 29.86 in1011.2 mb 0.00 in0.0 mm 0.00 in/hr0.0 mm/hr 0.15 in3.8 mm
10:45 AM 56.8°F13.8°C 54.8°F12.7°C 93% Calm Calm -- 29.86 in1011.2 mb 0.00 in0.0 mm 0.00 in/hr0.0 mm/hr 0.15 in3.8 mm
10:30 AM 56.3°F13.5°C 54.3°F12.4°C 93% Calm Calm -- 29.86 in1011.2 mb 0.00 in0.0 mm 0.00 in/hr0.0 mm/hr 0.15 in3.8 mm
10:15 AM 55.8°F13.2°C 54.1°F12.3°C 94% Calm Calm -- 29.85 in1010.8 mb 0.00 in0.0 mm 0.00 in/hr0.0 mm/hr 0.15 in3.8 mm
10:00 AM 55.6°F13.1°C 53.6°F12.0°C 93% Calm Calm -- 29.86 in1011.2 mb 0.00 in0.0 mm 0.00 in/hr0.0 mm/hr 0.15 in3.8 mm
09:45 AM 55.4°F13.0°C 53.4°F11.9°C 93% Calm Calm -- 29.86 in1011.2 mb 0.02 in0.5 mm 0.08 in/hr2.0 mm/hr 0.15 in3.8 mm
09:30 AM 55.4°F13.0°C 53.4°F11.9°C 93% Calm Calm -- 29.86 in1011.2 mb 0.02 in0.5 mm 0.08 in/hr2.0 mm/hr 0.12 in3.0 mm
09:15 AM 55.4°F13.0°C 53.4°F11.9°C 93% Calm Calm -- 29.86 in1011.2 mb 0.02 in0.5 mm 0.08 in/hr2.0 mm/hr 0.10 in2.5 mm
09:00 AM 55.4°F13.0°C 53.4°F11.9°C 93% Calm Calm -- 29.86 in1011.2 mb 0.02 in0.5 mm 0.03 in/hr0.8 mm/hr 0.10 in2.5 mm
08:45 AM 55.4°F13.0°C 53.4°F11.9°C 93% Calm Calm -- 29.86 in1011.2 mb 0.02 in0.5 mm 0.08 in/hr2.0 mm/hr 0.08 in2.0 mm
08:30 AM 55.2°F12.9°C 53.2°F11.8°C 93% Calm Calm -- 29.86 in1011.2 mb 0.04 in1.0 mm 0.16 in/hr4.1 mm/hr 0.06 in1.5 mm
08:15 AM 55.2°F12.9°C 53.2°F11.8°C 93% Calm Calm -- 29.86 in1011.2 mb 0.00 in0.0 mm 0.00 in/hr0.0 mm/hr 0.02 in0.5 mm
08:00 AM 55.0°F12.8°C 53.1°F11.7°C 93% Calm Calm -- 29.86 in1011.2 mb 0.00 in0.0 mm 0.00 in/hr0.0 mm/hr 0.02 in0.5 mm
07:45 AM 54.9°F12.7°C 52.9°F11.6°C 93% Calm Calm -- 29.85 in1010.8 mb 0.00 in0.0 mm 0.00 in/hr0.0 mm/hr 0.02 in0.5 mm
07:30 AM 54.6°F12.6°C 52.6°F11.4°C 93% Calm Calm -- 29.85 in1010.8 mb 0.00 in0.0 mm 0.00 in/hr0.0 mm/hr 0.02 in0.5 mm
07:15 AM 54.5°F12.5°C 52.5°F11.4°C 93% Calm Calm -- 29.85 in1010.8 mb 0.00 in0.0 mm 0.00 in/hr0.0 mm/hr 0.02 in0.5 mm
07:00 AM 54.3°F12.4°C 52.3°F11.3°C 93% Calm Calm -- 29.84 in1010.5 mb 0.00 in0.0 mm 0.00 in/hr0.0 mm/hr 0.02 in0.5 mm
06:45 AM 54.3°F12.4°C 52.3°F11.3°C 93% Calm Calm -- 29.84 in1010.5 mb 0.02 in0.5 mm 0.08 in/hr2.0 mm/hr 0.02 in0.5 mm
06:30 AM 54.3°F12.4°C 52.3°F11.3°C 93% Calm Calm -- 29.84 in1010.5 mb 0.00 in0.0 mm 0.00 in/hr0.0 mm/hr 0.00 in0.0 mm
06:15 AM 54.3°F12.4°C 52.0°F11.1°C 92% Calm Calm -- 29.84 in1010.5 mb 0.00 in0.0 mm 0.00 in/hr0.0 mm/hr 0.00 in0.0 mm
06:00 AM 54.3°F12.4°C 52.0°F11.1°C 92% Calm Calm -- 29.85 in1010.8 mb 0.00 in0.0 mm 0.00 in/hr0.0 mm/hr 0.00 in0.0 mm
05:45 AM 54.1°F12.3°C 51.9°F11.1°C 92% Calm Calm -- 29.85 in1010.8 mb 0.00 in0.0 mm 0.00 in/hr0.0 mm/hr 0.00 in0.0 mm
05:30 AM 54.1°F12.3°C 51.9°F11.1°C 92% Calm Calm -- 29.85 in1010.8 mb 0.00 in0.0 mm 0.00 in/hr0.0 mm/hr 0.00 in0.0 mm
05:15 AM 54.1°F12.3°C 51.9°F11.1°C 92% Calm Calm -- 29.86 in1011.2 mb 0.00 in0.0 mm 0.00 in/hr0.0 mm/hr 0.00 in0.0 mm
05:00 AM 54.3°F12.4°C 52.0°F11.1°C 92% Calm Calm -- 29.86 in1011.2 mb 0.00 in0.0 mm 0.00 in/hr0.0 mm/hr 0.00 in0.0 mm
04:30 AM 54.7°F12.6°C 52.4°F11.3°C 92% Calm Calm -- 29.86 in1011.2 mb 0.00 in0.0 mm 0.00 in/hr0.0 mm/hr 0.00 in0.0 mm
04:15 AM 54.7°F12.6°C 52.4°F11.3°C 92% Calm Calm -- 29.87 in1011.5 mb 0.00 in0.0 mm 0.00 in/hr0.0 mm/hr 0.00 in0.0 mm
04:00 AM 54.7°F12.6°C 52.4°F11.3°C 92% Calm Calm -- 29.87 in1011.5 mb 0.00 in0.0 mm 0.00 in/hr0.0 mm/hr 0.00 in0.0 mm
03:45 AM 54.5°F12.5°C 52.2°F11.2°C 92% Calm Calm -- 29.87 in1011.5 mb 0.00 in0.0 mm 0.00 in/hr0.0 mm/hr 0.00 in0.0 mm
03:30 AM 54.3°F12.4°C 52.0°F11.1°C 92% Calm Calm -- 29.87 in1011.5 mb 0.00 in0.0 mm 0.00 in/hr0.0 mm/hr 0.00 in0.0 mm
03:15 AM 54.2°F12.3°C 51.9°F11.1°C 92% Calm Calm -- 29.88 in1011.9 mb 0.00 in0.0 mm 0.00 in/hr0.0 mm/hr 0.00 in0.0 mm
03:00 AM 54.2°F12.3°C 51.9°F11.1°C 92% Calm Calm -- 29.89 in1012.2 mb 0.00 in0.0 mm 0.00 in/hr0.0 mm/hr 0.00 in0.0 mm
02:45 AM 54.2°F12.3°C 51.9°F11.1°C 92% Calm Calm -- 29.88 in1011.9 mb 0.00 in0.0 mm 0.00 in/hr0.0 mm/hr 0.00 in0.0 mm
02:30 AM 54.7°F12.6°C 52.4°F11.3°C 92% Calm Calm -- 29.89 in1012.2 mb 0.00 in0.0 mm 0.00 in/hr0.0 mm/hr 0.00 in0.0 mm
02:15 AM 54.7°F12.6°C 52.1°F11.2°C 91% Calm Calm -- 29.89 in1012.2 mb 0.00 in0.0 mm 0.00 in/hr0.0 mm/hr 0.00 in0.0 mm
02:00 AM 55.0°F12.8°C 52.5°F11.4°C 91% Calm Calm -- 29.89 in1012.2 mb 0.00 in0.0 mm 0.00 in/hr0.0 mm/hr 0.00 in0.0 mm
01:45 AM 55.2°F12.9°C 52.6°F11.4°C 91% Calm Calm -- 29.89 in1012.2 mb 0.00 in0.0 mm 0.00 in/hr0.0 mm/hr 0.00 in0.0 mm
01:30 AM 55.2°F12.9°C 52.6°F11.4°C 91% Calm Calm -- 29.90 in1012.5 mb 0.00 in0.0 mm 0.00 in/hr0.0 mm/hr 0.00 in0.0 mm
01:15 AM 55.2°F12.9°C 52.3°F11.3°C 90% Calm Calm -- 29.90 in1012.5 mb 0.00 in0.0 mm 0.00 in/hr0.0 mm/hr 0.00 in0.0 mm
01:00 AM 55.0°F12.8°C 52.5°F11.4°C 91% Calm Calm -- 29.90 in1012.5 mb 0.00 in0.0 mm 0.00 in/hr0.0 mm/hr 0.00 in0.0 mm
12:45 AM 55.0°F12.8°C 52.5°F11.4°C 91% Calm Calm -- 29.91 in1012.9 mb 0.00 in0.0 mm 0.00 in/hr0.0 mm/hr 0.00 in0.0 mm
12:30 AM 55.2°F12.9°C 52.6°F11.4°C 91% Calm Calm -- 29.91 in1012.9 mb 0.00 in0.0 mm 0.00 in/hr0.0 mm/hr 0.00 in0.0 mm
12:15 AM 55.2°F12.9°C 52.6°F11.4°C 91% Calm Calm -- 29.91 in1012.9 mb 0.00 in0.0 mm 0.00 in/hr0.0 mm/hr 0.00 in0.0 mm
12:00 AM 55.3°F12.9°C 52.7°F11.5°C 91% Calm Calm -- 29.91 in1012.9 mb 0.00 in0.0 mm 0.00 in/hr0.0 mm/hr 0.00 in0.0 mm